sensor_id;sensor_type;location;lat;lon;timestamp;P1;durP1;ratioP1;P2;durP2;ratioP2
77076;SDS011;66003;52.286;104.306;2023-04-25T00:01:13;4.13;;;1.10;;
77076;SDS011;66003;52.286;104.306;2023-04-25T00:03:40;6.53;;;0.77;;
77076;SDS011;66003;52.286;104.306;2023-04-25T00:06:06;3.10;;;0.95;;
77076;SDS011;66003;52.286;104.306;2023-04-25T00:08:33;6.22;;;1.30;;
77076;SDS011;66003;52.286;104.306;2023-04-25T00:11:01;6.07;;;1.50;;
77076;SDS011;66003;52.286;104.306;2023-04-25T00:13:29;3.22;;;1.25;;
77076;SDS011;66003;52.286;104.306;2023-04-25T00:16:00;4.18;;;1.50;;
77076;SDS011;66003;52.286;104.306;2023-04-25T00:18:27;4.18;;;1.15;;
77076;SDS011;66003;52.286;104.306;2023-04-25T00:20:54;6.90;;;1.35;;
77076;SDS011;66003;52.286;104.306;2023-04-25T00:23:21;0.85;;;0.25;;
77076;SDS011;66003;52.286;104.306;2023-04-25T00:25:48;7.78;;;1.15;;
77076;SDS011;66003;52.286;104.306;2023-04-25T00:28:15;2.33;;;0.70;;
77076;SDS011;66003;52.286;104.306;2023-04-25T00:30:42;4.55;;;1.08;;
77076;SDS011;66003;52.286;104.306;2023-04-25T00:33:11;5.55;;;2.10;;
77076;SDS011;66003;52.286;104.306;2023-04-25T00:35:37;6.07;;;1.25;;
77076;SDS011;66003;52.286;104.306;2023-04-25T00:38:04;3.88;;;1.45;;
77076;SDS011;66003;52.286;104.306;2023-04-25T00:40:30;2.78;;;0.82;;
77076;SDS011;66003;52.286;104.306;2023-04-25T00:45:22;7.35;;;1.10;;
77076;SDS011;66003;52.286;104.306;2023-04-25T00:47:53;3.55;;;1.35;;
77076;SDS011;66003;52.286;104.306;2023-04-25T00:50:20;5.53;;;1.15;;
77076;SDS011;66003;52.286;104.306;2023-04-25T00:52:46;2.95;;;1.00;;
77076;SDS011;66003;52.286;104.306;2023-04-25T00:55:12;4.20;;;0.98;;
77076;SDS011;66003;52.286;104.306;2023-04-25T00:57:39;4.60;;;1.25;;
77076;SDS011;66003;52.286;104.306;2023-04-25T01:00:06;4.85;;;1.15;;
77076;SDS011;66003;52.286;104.306;2023-04-25T01:02:35;2.75;;;1.08;;
77076;SDS011;66003;52.286;104.306;2023-04-25T01:05:01;1.50;;;0.88;;
77076;SDS011;66003;52.286;104.306;2023-04-25T01:07:32;3.08;;;0.80;;
77076;SDS011;66003;52.286;104.306;2023-04-25T01:09:59;3.08;;;2.13;;
77076;SDS011;66003;52.286;104.306;2023-04-25T01:12:26;6.10;;;1.60;;
77076;SDS011;66003;52.286;104.306;2023-04-25T01:14:52;4.93;;;1.35;;
77076;SDS011;66003;52.286;104.306;2023-04-25T01:17:18;3.80;;;0.65;;
77076;SDS011;66003;52.286;104.306;2023-04-25T01:19:45;6.05;;;1.23;;
77076;SDS011;66003;52.286;104.306;2023-04-25T01:22:13;11.38;;;1.55;;
77076;SDS011;66003;52.286;104.306;2023-04-25T01:24:40;3.08;;;0.80;;
77076;SDS011;66003;52.286;104.306;2023-04-25T01:27:06;2.88;;;0.82;;
77076;SDS011;66003;52.286;104.306;2023-04-25T01:29:33;4.43;;;0.93;;
77076;SDS011;66003;52.286;104.306;2023-04-25T01:32:01;5.68;;;1.27;;
77076;SDS011;66003;52.286;104.306;2023-04-25T01:34:28;3.58;;;1.13;;
77076;SDS011;66003;52.286;104.306;2023-04-25T01:36:55;2.53;;;0.82;;
77076;SDS011;66003;52.286;104.306;2023-04-25T01:39:21;9.45;;;1.42;;
77076;SDS011;66003;52.286;104.306;2023-04-25T01:41:47;5.22;;;1.17;;
77076;SDS011;66003;52.286;104.306;2023-04-25T01:44:14;4.57;;;1.05;;
77076;SDS011;66003;52.286;104.306;2023-04-25T01:46:40;3.28;;;0.88;;
77076;SDS011;66003;52.286;104.306;2023-04-25T01:49:07;1.85;;;0.75;;
77076;SDS011;66003;52.286;104.306;2023-04-25T01:51:33;6.35;;;1.33;;
77076;SDS011;66003;52.286;104.306;2023-04-25T01:54:00;4.47;;;1.13;;
77076;SDS011;66003;52.286;104.306;2023-04-25T01:56:30;8.57;;;1.42;;
77076;SDS011;66003;52.286;104.306;2023-04-25T01:58:57;3.55;;;0.95;;
77076;SDS011;66003;52.286;104.306;2023-04-25T02:01:24;3.28;;;0.75;;
77076;SDS011;66003;52.286;104.306;2023-04-25T02:03:50;3.42;;;0.60;;
77076;SDS011;66003;52.286;104.306;2023-04-25T02:06:16;2.80;;;0.77;;
77076;SDS011;66003;52.286;104.306;2023-04-25T02:08:43;1.77;;;0.82;;
77076;SDS011;66003;52.286;104.306;2023-04-25T02:11:09;3.75;;;0.77;;
77076;SDS011;66003;52.286;104.306;2023-04-25T02:13:35;4.03;;;1.63;;
77076;SDS011;66003;52.286;104.306;2023-04-25T02:16:02;3.13;;;0.73;;
77076;SDS011;66003;52.286;104.306;2023-04-25T02:18:28;2.83;;;0.75;;
77076;SDS011;66003;52.286;104.306;2023-04-25T02:20:54;4.38;;;0.82;;
77076;SDS011;66003;52.286;104.306;2023-04-25T02:23:24;2.42;;;0.85;;
77076;SDS011;66003;52.286;104.306;2023-04-25T02:25:50;2.67;;;0.60;;
77076;SDS011;66003;52.286;104.306;2023-04-25T02:28:17;2.15;;;0.63;;
77076;SDS011;66003;52.286;104.306;2023-04-25T02:30:43;3.67;;;0.68;;
77076;SDS011;66003;52.286;104.306;2023-04-25T02:33:09;2.72;;;0.73;;
77076;SDS011;66003;52.286;104.306;2023-04-25T02:35:36;2.20;;;0.80;;
77076;SDS011;66003;52.286;104.306;2023-04-25T02:38:02;5.10;;;1.10;;
77076;SDS011;66003;52.286;104.306;2023-04-25T02:40:28;4.30;;;1.20;;
77076;SDS011;66003;52.286;104.306;2023-04-25T02:42:54;6.28;;;1.15;;
77076;SDS011;66003;52.286;104.306;2023-04-25T02:45:20;1.67;;;0.50;;
77076;SDS011;66003;52.286;104.306;2023-04-25T02:47:47;1.23;;;0.80;;
77076;SDS011;66003;52.286;104.306;2023-04-25T02:50:13;6.35;;;0.90;;
77076;SDS011;66003;52.286;104.306;2023-04-25T02:52:39;3.30;;;0.57;;
77076;SDS011;66003;52.286;104.306;2023-04-25T02:55:05;3.20;;;0.73;;
77076;SDS011;66003;52.286;104.306;2023-04-25T02:57:32;8.77;;;1.83;;
77076;SDS011;66003;52.286;104.306;2023-04-25T02:59:58;2.75;;;0.77;;
77076;SDS011;66003;52.286;104.306;2023-04-25T03:04:50;2.78;;;1.00;;
77076;SDS011;66003;52.286;104.306;2023-04-25T03:07:17;3.03;;;1.05;;
77076;SDS011;66003;52.286;104.306;2023-04-25T03:09:43;3.70;;;0.98;;
77076;SDS011;66003;52.286;104.306;2023-04-25T03:12:10;6.53;;;0.88;;
77076;SDS011;66003;52.286;104.306;2023-04-25T03:14:36;1.65;;;0.68;;
77076;SDS011;66003;52.286;104.306;2023-04-25T03:17:02;5.20;;;1.13;;
77076;SDS011;66003;52.286;104.306;2023-04-25T03:19:28;0.77;;;0.55;;
77076;SDS011;66003;52.286;104.306;2023-04-25T03:21:55;1.45;;;0.70;;
77076;SDS011;66003;52.286;104.306;2023-04-25T03:24:21;2.90;;;1.02;;
77076;SDS011;66003;52.286;104.306;2023-04-25T03:26:47;6.60;;;1.38;;
77076;SDS011;66003;52.286;104.306;2023-04-25T03:29:13;3.63;;;0.90;;
77076;SDS011;66003;52.286;104.306;2023-04-25T03:31:40;3.05;;;0.80;;
77076;SDS011;66003;52.286;104.306;2023-04-25T03:34:06;2.80;;;0.95;;
77076;SDS011;66003;52.286;104.306;2023-04-25T03:36:32;2.25;;;0.90;;
77076;SDS011;66003;52.286;104.306;2023-04-25T03:38:58;1.85;;;0.38;;
77076;SDS011;66003;52.286;104.306;2023-04-25T03:41:24;1.83;;;1.30;;
77076;SDS011;66003;52.286;104.306;2023-04-25T03:43:51;4.57;;;0.90;;
77076;SDS011;66003;52.286;104.306;2023-04-25T03:46:17;1.88;;;0.85;;
77076;SDS011;66003;52.286;104.306;2023-04-25T03:48:43;2.40;;;1.10;;
77076;SDS011;66003;52.286;104.306;2023-04-25T03:51:09;2.88;;;0.90;;
77076;SDS011;66003;52.286;104.306;2023-04-25T03:53:36;1.83;;;1.17;;
77076;SDS011;66003;52.286;104.306;2023-04-25T03:56:03;2.47;;;0.95;;
77076;SDS011;66003;52.286;104.306;2023-04-25T03:58:29;3.65;;;0.75;;
77076;SDS011;66003;52.286;104.306;2023-04-25T04:00:55;1.88;;;0.63;;
77076;SDS011;66003;52.286;104.306;2023-04-25T04:03:21;2.08;;;1.05;;
77076;SDS011;66003;52.286;104.306;2023-04-25T04:05:47;1.58;;;0.70;;
77076;SDS011;66003;52.286;104.306;2023-04-25T04:08:14;8.05;;;0.90;;
77076;SDS011;66003;52.286;104.306;2023-04-25T04:10:40;2.95;;;1.33;;
77076;SDS011;66003;52.286;104.306;2023-04-25T04:13:06;1.83;;;0.47;;
77076;SDS011;66003;52.286;104.306;2023-04-25T04:15:32;3.42;;;0.73;;
77076;SDS011;66003;52.286;104.306;2023-04-25T04:17:58;2.05;;;0.63;;
77076;SDS011;66003;52.286;104.306;2023-04-25T04:20:28;1.60;;;0.43;;
77076;SDS011;66003;52.286;104.306;2023-04-25T04:22:58;4.00;;;1.20;;
77076;SDS011;66003;52.286;104.306;2023-04-25T04:25:24;4.32;;;1.00;;
77076;SDS011;66003;52.286;104.306;2023-04-25T04:27:51;1.17;;;0.30;;
77076;SDS011;66003;52.286;104.306;2023-04-25T04:30:23;4.50;;;1.13;;
77076;SDS011;66003;52.286;104.306;2023-04-25T04:32:50;2.95;;;0.95;;
77076;SDS011;66003;52.286;104.306;2023-04-25T04:35:17;2.40;;;1.60;;
77076;SDS011;66003;52.286;104.306;2023-04-25T04:37:43;4.22;;;1.30;;
77076;SDS011;66003;52.286;104.306;2023-04-25T04:40:11;4.00;;;1.30;;
77076;SDS011;66003;52.286;104.306;2023-04-25T04:42:38;6.95;;;1.50;;
77076;SDS011;66003;52.286;104.306;2023-04-25T04:45:07;5.60;;;1.42;;
77076;SDS011;66003;52.286;104.306;2023-04-25T04:47:33;7.78;;;2.17;;
77076;SDS011;66003;52.286;104.306;2023-04-25T04:50:02;7.07;;;1.45;;
77076;SDS011;66003;52.286;104.306;2023-04-25T04:52:30;3.88;;;0.60;;
77076;SDS011;66003;52.286;104.306;2023-04-25T04:54:56;6.85;;;1.02;;
77076;SDS011;66003;52.286;104.306;2023-04-25T04:57:22;3.63;;;1.35;;
77076;SDS011;66003;52.286;104.306;2023-04-25T04:59:48;3.25;;;0.63;;
77076;SDS011;66003;52.286;104.306;2023-04-25T05:02:15;5.25;;;1.17;;
77076;SDS011;66003;52.286;104.306;2023-04-25T05:04:42;3.67;;;1.05;;
77076;SDS011;66003;52.286;104.306;2023-04-25T05:07:08;3.47;;;1.00;;
77076;SDS011;66003;52.286;104.306;2023-04-25T05:09:34;5.50;;;1.08;;
77076;SDS011;66003;52.286;104.306;2023-04-25T05:12:00;7.70;;;1.88;;
77076;SDS011;66003;52.286;104.306;2023-04-25T05:14:26;4.53;;;1.98;;
77076;SDS011;66003;52.286;104.306;2023-04-25T05:16:53;5.05;;;1.42;;
77076;SDS011;66003;52.286;104.306;2023-04-25T05:19:19;6.03;;;1.27;;
77076;SDS011;66003;52.286;104.306;2023-04-25T05:21:45;4.07;;;0.77;;
77076;SDS011;66003;52.286;104.306;2023-04-25T05:24:11;3.75;;;2.10;;
77076;SDS011;66003;52.286;104.306;2023-04-25T05:29:03;2.05;;;0.98;;
77076;SDS011;66003;52.286;104.306;2023-04-25T05:31:31;5.07;;;1.00;;
77076;SDS011;66003;52.286;104.306;2023-04-25T05:33:58;2.63;;;0.93;;
77076;SDS011;66003;52.286;104.306;2023-04-25T05:36:24;7.40;;;0.82;;
77076;SDS011;66003;52.286;104.306;2023-04-25T05:38:51;7.35;;;1.17;;
77076;SDS011;66003;52.286;104.306;2023-04-25T05:41:17;6.05;;;1.23;;
77076;SDS011;66003;52.286;104.306;2023-04-25T05:43:43;8.85;;;1.42;;
77076;SDS011;66003;52.286;104.306;2023-04-25T05:46:12;6.35;;;1.48;;
77076;SDS011;66003;52.286;104.306;2023-04-25T05:48:39;7.07;;;1.88;;
77076;SDS011;66003;52.286;104.306;2023-04-25T05:51:05;7.22;;;1.63;;
77076;SDS011;66003;52.286;104.306;2023-04-25T05:53:31;7.57;;;1.35;;
77076;SDS011;66003;52.286;104.306;2023-04-25T05:55:57;4.38;;;1.67;;
77076;SDS011;66003;52.286;104.306;2023-04-25T05:58:23;3.08;;;0.77;;
77076;SDS011;66003;52.286;104.306;2023-04-25T06:03:16;5.38;;;1.70;;
77076;SDS011;66003;52.286;104.306;2023-04-25T06:05:42;4.03;;;1.50;;
77076;SDS011;66003;52.286;104.306;2023-04-25T06:08:09;5.00;;;2.30;;
77076;SDS011;66003;52.286;104.306;2023-04-25T06:10:36;5.97;;;1.20;;
77076;SDS011;66003;52.286;104.306;2023-04-25T06:13:05;5.07;;;1.52;;
77076;SDS011;66003;52.286;104.306;2023-04-25T06:15:31;7.97;;;2.33;;
77076;SDS011;66003;52.286;104.306;2023-04-25T06:18:00;5.05;;;1.05;;
77076;SDS011;66003;52.286;104.306;2023-04-25T06:20:27;4.18;;;0.95;;
77076;SDS011;66003;52.286;104.306;2023-04-25T06:22:53;6.50;;;1.48;;
77076;SDS011;66003;52.286;104.306;2023-04-25T06:27:45;7.93;;;1.02;;
77076;SDS011;66003;52.286;104.306;2023-04-25T06:32:37;11.30;;;1.92;;
77076;SDS011;66003;52.286;104.306;2023-04-25T06:35:04;5.70;;;1.30;;
77076;SDS011;66003;52.286;104.306;2023-04-25T06:37:31;8.75;;;1.60;;
77076;SDS011;66003;52.286;104.306;2023-04-25T06:39:57;5.18;;;2.25;;
77076;SDS011;66003;52.286;104.306;2023-04-25T06:42:23;3.03;;;1.00;;
77076;SDS011;66003;52.286;104.306;2023-04-25T06:47:15;5.00;;;1.13;;
77076;SDS011;66003;52.286;104.306;2023-04-25T06:49:41;8.55;;;1.50;;
77076;SDS011;66003;52.286;104.306;2023-04-25T06:54:34;3.85;;;1.25;;
77076;SDS011;66003;52.286;104.306;2023-04-25T06:59:26;5.88;;;1.50;;
77076;SDS011;66003;52.286;104.306;2023-04-25T07:01:52;5.13;;;1.00;;
77076;SDS011;66003;52.286;104.306;2023-04-25T07:06:44;5.45;;;1.42;;
77076;SDS011;66003;52.286;104.306;2023-04-25T07:09:12;8.68;;;1.42;;
77076;SDS011;66003;52.286;104.306;2023-04-25T07:11:39;9.77;;;1.33;;
77076;SDS011;66003;52.286;104.306;2023-04-25T07:16:31;3.60;;;1.05;;
77076;SDS011;66003;52.286;104.306;2023-04-25T07:18:57;3.95;;;0.95;;
77076;SDS011;66003;52.286;104.306;2023-04-25T07:21:24;4.82;;;1.13;;
77076;SDS011;66003;52.286;104.306;2023-04-25T07:23:51;3.20;;;1.05;;
77076;SDS011;66003;52.286;104.306;2023-04-25T07:26:17;4.13;;;1.52;;
77076;SDS011;66003;52.286;104.306;2023-04-25T07:28:43;7.63;;;1.52;;
77076;SDS011;66003;52.286;104.306;2023-04-25T07:33:35;3.45;;;1.13;;
77076;SDS011;66003;52.286;104.306;2023-04-25T07:38:28;2.72;;;0.77;;
77076;SDS011;66003;52.286;104.306;2023-04-25T07:40:54;3.75;;;1.02;;
77076;SDS011;66003;52.286;104.306;2023-04-25T07:45:46;8.23;;;1.45;;
77076;SDS011;66003;52.286;104.306;2023-04-25T07:50:44;2.10;;;0.80;;
77076;SDS011;66003;52.286;104.306;2023-04-25T07:53:10;9.07;;;2.08;;
77076;SDS011;66003;52.286;104.306;2023-04-25T07:55:37;8.63;;;2.10;;
77076;SDS011;66003;52.286;104.306;2023-04-25T07:58:08;4.47;;;1.52;;
77076;SDS011;66003;52.286;104.306;2023-04-25T08:00:35;9.00;;;1.33;;
77076;SDS011;66003;52.286;104.306;2023-04-25T08:03:01;9.13;;;1.77;;
77076;SDS011;66003;52.286;104.306;2023-04-25T08:05:28;6.70;;;1.38;;
77076;SDS011;66003;52.286;104.306;2023-04-25T08:07:55;6.03;;;1.42;;
77076;SDS011;66003;52.286;104.306;2023-04-25T08:10:22;5.97;;;1.00;;
77076;SDS011;66003;52.286;104.306;2023-04-25T08:12:48;4.03;;;0.85;;
77076;SDS011;66003;52.286;104.306;2023-04-25T08:15:15;5.10;;;1.15;;
77076;SDS011;66003;52.286;104.306;2023-04-25T08:20:07;4.45;;;0.77;;
77076;SDS011;66003;52.286;104.306;2023-04-25T08:22:34;4.32;;;1.30;;
77076;SDS011;66003;52.286;104.306;2023-04-25T08:27:26;5.05;;;1.13;;
77076;SDS011;66003;52.286;104.306;2023-04-25T08:32:18;11.13;;;1.55;;
77076;SDS011;66003;52.286;104.306;2023-04-25T08:34:45;4.07;;;1.42;;
77076;SDS011;66003;52.286;104.306;2023-04-25T08:37:12;8.50;;;1.85;;
77076;SDS011;66003;52.286;104.306;2023-04-25T08:42:05;5.22;;;1.58;;
77076;SDS011;66003;52.286;104.306;2023-04-25T08:44:33;4.72;;;1.15;;
77076;SDS011;66003;52.286;104.306;2023-04-25T08:47:02;5.80;;;1.13;;
77076;SDS011;66003;52.286;104.306;2023-04-25T08:49:31;4.65;;;0.82;;
77076;SDS011;66003;52.286;104.306;2023-04-25T08:51:59;8.20;;;2.13;;
77076;SDS011;66003;52.286;104.306;2023-04-25T08:54:29;4.38;;;1.35;;
77076;SDS011;66003;52.286;104.306;2023-04-25T08:56:57;8.38;;;1.40;;
77076;SDS011;66003;52.286;104.306;2023-04-25T08:59:27;6.22;;;1.25;;
77076;SDS011;66003;52.286;104.306;2023-04-25T09:01:54;7.72;;;0.98;;
77076;SDS011;66003;52.286;104.306;2023-04-25T09:04:21;8.68;;;1.20;;
77076;SDS011;66003;52.286;104.306;2023-04-25T09:09:13;5.07;;;1.05;;
77076;SDS011;66003;52.286;104.306;2023-04-25T09:11:40;8.40;;;1.27;;
77076;SDS011;66003;52.286;104.306;2023-04-25T09:14:17;9.95;;;1.33;;
77076;SDS011;66003;52.286;104.306;2023-04-25T09:19:23;7.80;;;1.63;;
77076;SDS011;66003;52.286;104.306;2023-04-25T09:21:54;4.07;;;1.27;;
77076;SDS011;66003;52.286;104.306;2023-04-25T09:24:41;4.90;;;1.30;;
77076;SDS011;66003;52.286;104.306;2023-04-25T09:27:12;5.30;;;1.48;;
77076;SDS011;66003;52.286;104.306;2023-04-25T09:29:43;8.65;;;1.02;;
77076;SDS011;66003;52.286;104.306;2023-04-25T09:32:19;4.85;;;1.20;;
77076;SDS011;66003;52.286;104.306;2023-04-25T09:34:47;3.25;;;1.27;;
77076;SDS011;66003;52.286;104.306;2023-04-25T09:39:52;11.27;;;1.38;;
77076;SDS011;66003;52.286;104.306;2023-04-25T09:42:24;7.63;;;1.67;;
77076;SDS011;66003;52.286;104.306;2023-04-25T09:44:51;9.43;;;1.08;;
77076;SDS011;66003;52.286;104.306;2023-04-25T09:47:18;4.35;;;1.52;;
77076;SDS011;66003;52.286;104.306;2023-04-25T09:49:46;8.38;;;1.08;;
77076;SDS011;66003;52.286;104.306;2023-04-25T09:52:14;5.25;;;1.02;;
77076;SDS011;66003;52.286;104.306;2023-04-25T09:54:42;2.10;;;0.45;;
77076;SDS011;66003;52.286;104.306;2023-04-25T09:57:14;4.05;;;0.75;;
77076;SDS011;66003;52.286;104.306;2023-04-25T09:59:48;5.93;;;1.05;;
77076;SDS011;66003;52.286;104.306;2023-04-25T10:02:20;6.18;;;0.75;;
77076;SDS011;66003;52.286;104.306;2023-04-25T10:04:51;3.55;;;1.27;;
77076;SDS011;66003;52.286;104.306;2023-04-25T10:07:23;9.18;;;1.55;;
77076;SDS011;66003;52.286;104.306;2023-04-25T10:09:54;5.72;;;1.00;;
77076;SDS011;66003;52.286;104.306;2023-04-25T10:12:26;4.63;;;0.98;;
77076;SDS011;66003;52.286;104.306;2023-04-25T10:14:52;2.97;;;1.20;;
77076;SDS011;66003;52.286;104.306;2023-04-25T10:17:20;2.70;;;0.75;;
77076;SDS011;66003;52.286;104.306;2023-04-25T10:19:47;8.07;;;1.08;;
77076;SDS011;66003;52.286;104.306;2023-04-25T10:22:57;4.88;;;0.65;;
77076;SDS011;66003;52.286;104.306;2023-04-25T10:25:07;8.82;;;1.00;;
77076;SDS011;66003;52.286;104.306;2023-04-25T10:27:35;2.03;;;0.85;;
77076;SDS011;66003;52.286;104.306;2023-04-25T10:30:03;3.13;;;0.75;;
77076;SDS011;66003;52.286;104.306;2023-04-25T10:32:35;3.70;;;0.90;;
77076;SDS011;66003;52.286;104.306;2023-04-25T10:35:12;4.18;;;0.98;;
77076;SDS011;66003;52.286;104.306;2023-04-25T10:40:34;7.18;;;0.55;;
77076;SDS011;66003;52.286;104.306;2023-04-25T10:45:54;5.07;;;0.70;;
77076;SDS011;66003;52.286;104.306;2023-04-25T10:48:27;6.78;;;1.05;;
77076;SDS011;66003;52.286;104.306;2023-04-25T10:51:09;3.85;;;0.80;;
77076;SDS011;66003;52.286;104.306;2023-04-25T10:53:36;4.93;;;0.73;;
77076;SDS011;66003;52.286;104.306;2023-04-25T10:56:10;2.53;;;0.73;;
77076;SDS011;66003;52.286;104.306;2023-04-25T10:58:47;4.38;;;0.85;;
77076;SDS011;66003;52.286;104.306;2023-04-25T11:01:14;6.43;;;0.73;;
77076;SDS011;66003;52.286;104.306;2023-04-25T11:03:56;5.55;;;1.25;;
77076;SDS011;66003;52.286;104.306;2023-04-25T11:06:28;6.30;;;0.60;;
77076;SDS011;66003;52.286;104.306;2023-04-25T11:09:15;4.43;;;0.90;;
77076;SDS011;66003;52.286;104.306;2023-04-25T11:11:42;2.97;;;0.95;;
77076;SDS011;66003;52.286;104.306;2023-04-25T11:16:34;3.25;;;0.75;;
77076;SDS011;66003;52.286;104.306;2023-04-25T11:19:01;1.75;;;0.68;;
77076;SDS011;66003;52.286;104.306;2023-04-25T11:21:28;8.80;;;1.42;;
77076;SDS011;66003;52.286;104.306;2023-04-25T11:23:57;5.95;;;0.85;;
77076;SDS011;66003;52.286;104.306;2023-04-25T11:26:24;3.78;;;0.85;;
77076;SDS011;66003;52.286;104.306;2023-04-25T11:28:51;5.78;;;1.25;;
77076;SDS011;66003;52.286;104.306;2023-04-25T11:31:19;5.18;;;1.27;;
77076;SDS011;66003;52.286;104.306;2023-04-25T11:33:47;8.82;;;1.20;;
77076;SDS011;66003;52.286;104.306;2023-04-25T11:36:13;3.80;;;0.77;;
77076;SDS011;66003;52.286;104.306;2023-04-25T11:38:39;3.55;;;1.17;;
77076;SDS011;66003;52.286;104.306;2023-04-25T11:41:06;7.43;;;2.15;;
77076;SDS011;66003;52.286;104.306;2023-04-25T11:43:32;6.43;;;1.80;;
77076;SDS011;66003;52.286;104.306;2023-04-25T11:45:58;12.05;;;1.63;;
77076;SDS011;66003;52.286;104.306;2023-04-25T11:48:25;4.55;;;1.02;;
77076;SDS011;66003;52.286;104.306;2023-04-25T11:50:51;10.10;;;1.25;;
77076;SDS011;66003;52.286;104.306;2023-04-25T11:53:17;9.40;;;1.10;;
77076;SDS011;66003;52.286;104.306;2023-04-25T11:55:44;4.82;;;1.05;;
77076;SDS011;66003;52.286;104.306;2023-04-25T12:00:38;3.33;;;1.23;;
77076;SDS011;66003;52.286;104.306;2023-04-25T12:03:08;13.50;;;1.27;;
77076;SDS011;66003;52.286;104.306;2023-04-25T12:05:35;6.38;;;1.58;;
77076;SDS011;66003;52.286;104.306;2023-04-25T12:08:09;4.22;;;0.98;;
77076;SDS011;66003;52.286;104.306;2023-04-25T12:10:37;4.05;;;1.55;;
77076;SDS011;66003;52.286;104.306;2023-04-25T12:13:21;6.43;;;1.55;;
77076;SDS011;66003;52.286;104.306;2023-04-25T12:15:56;4.47;;;1.60;;
77076;SDS011;66003;52.286;104.306;2023-04-25T12:18:23;7.80;;;1.30;;
77076;SDS011;66003;52.286;104.306;2023-04-25T12:20:53;6.78;;;1.80;;
77076;SDS011;66003;52.286;104.306;2023-04-25T12:23:27;10.18;;;1.30;;
77076;SDS011;66003;52.286;104.306;2023-04-25T12:25:54;9.65;;;1.92;;
77076;SDS011;66003;52.286;104.306;2023-04-25T12:28:21;5.25;;;1.42;;
77076;SDS011;66003;52.286;104.306;2023-04-25T12:33:31;9.07;;;2.13;;
77076;SDS011;66003;52.286;104.306;2023-04-25T12:36:05;4.63;;;1.75;;
77076;SDS011;66003;52.286;104.306;2023-04-25T12:38:41;10.13;;;1.40;;
77076;SDS011;66003;52.286;104.306;2023-04-25T12:41:08;7.30;;;1.05;;
77076;SDS011;66003;52.286;104.306;2023-04-25T12:43:35;3.95;;;1.60;;
77076;SDS011;66003;52.286;104.306;2023-04-25T12:46:01;4.68;;;1.17;;
77076;SDS011;66003;52.286;104.306;2023-04-25T12:48:27;6.55;;;1.58;;
77076;SDS011;66003;52.286;104.306;2023-04-25T12:50:53;4.10;;;1.48;;
77076;SDS011;66003;52.286;104.306;2023-04-25T12:53:20;9.48;;;2.10;;
77076;SDS011;66003;52.286;104.306;2023-04-25T12:55:48;5.93;;;1.63;;
77076;SDS011;66003;52.286;104.306;2023-04-25T12:58:18;8.63;;;1.58;;
77076;SDS011;66003;52.286;104.306;2023-04-25T13:00:45;9.30;;;2.08;;
77076;SDS011;66003;52.286;104.306;2023-04-25T13:03:13;5.70;;;1.90;;
77076;SDS011;66003;52.286;104.306;2023-04-25T13:05:39;9.38;;;2.05;;
77076;SDS011;66003;52.286;104.306;2023-04-25T13:08:06;4.35;;;1.60;;
77076;SDS011;66003;52.286;104.306;2023-04-25T13:10:32;9.70;;;2.75;;
77076;SDS011;66003;52.286;104.306;2023-04-25T13:13:03;10.32;;;2.17;;
77076;SDS011;66003;52.286;104.306;2023-04-25T13:15:29;4.18;;;1.80;;
77076;SDS011;66003;52.286;104.306;2023-04-25T13:17:56;7.78;;;2.40;;
77076;SDS011;66003;52.286;104.306;2023-04-25T13:20:22;6.13;;;1.48;;
77076;SDS011;66003;52.286;104.306;2023-04-25T13:22:49;7.35;;;2.22;;
77076;SDS011;66003;52.286;104.306;2023-04-25T13:25:15;10.40;;;1.50;;
77076;SDS011;66003;52.286;104.306;2023-04-25T13:27:41;9.85;;;1.15;;
77076;SDS011;66003;52.286;104.306;2023-04-25T13:30:10;3.83;;;1.13;;
77076;SDS011;66003;52.286;104.306;2023-04-25T13:32:38;7.53;;;1.55;;
77076;SDS011;66003;52.286;104.306;2023-04-25T13:35:06;2.40;;;0.93;;
77076;SDS011;66003;52.286;104.306;2023-04-25T13:37:35;5.65;;;1.45;;
77076;SDS011;66003;52.286;104.306;2023-04-25T13:42:31;5.97;;;2.10;;
77076;SDS011;66003;52.286;104.306;2023-04-25T13:44:58;6.03;;;1.88;;
77076;SDS011;66003;52.286;104.306;2023-04-25T13:47:25;3.15;;;1.73;;
77076;SDS011;66003;52.286;104.306;2023-04-25T13:49:52;4.75;;;0.93;;
77076;SDS011;66003;52.286;104.306;2023-04-25T13:52:18;5.95;;;2.10;;
77076;SDS011;66003;52.286;104.306;2023-04-25T13:54:45;10.65;;;2.33;;
77076;SDS011;66003;52.286;104.306;2023-04-25T13:57:11;12.85;;;3.30;;
77076;SDS011;66003;52.286;104.306;2023-04-25T13:59:38;5.95;;;2.40;;
77076;SDS011;66003;52.286;104.306;2023-04-25T14:02:06;10.93;;;2.80;;
77076;SDS011;66003;52.286;104.306;2023-04-25T14:04:33;9.68;;;2.75;;
77076;SDS011;66003;52.286;104.306;2023-04-25T14:07:00;7.78;;;2.17;;
77076;SDS011;66003;52.286;104.306;2023-04-25T14:09:27;4.60;;;2.05;;
77076;SDS011;66003;52.286;104.306;2023-04-25T14:11:54;9.05;;;2.20;;
77076;SDS011;66003;52.286;104.306;2023-04-25T14:14:22;8.38;;;2.58;;
77076;SDS011;66003;52.286;104.306;2023-04-25T14:19:22;8.40;;;3.00;;
77076;SDS011;66003;52.286;104.306;2023-04-25T14:21:49;5.82;;;3.05;;
77076;SDS011;66003;52.286;104.306;2023-04-25T14:24:15;9.50;;;3.38;;
77076;SDS011;66003;52.286;104.306;2023-04-25T14:26:41;8.27;;;3.72;;
77076;SDS011;66003;52.286;104.306;2023-04-25T14:29:08;3.60;;;2.00;;
77076;SDS011;66003;52.286;104.306;2023-04-25T14:31:34;6.38;;;2.78;;
77076;SDS011;66003;52.286;104.306;2023-04-25T14:34:01;7.22;;;2.38;;
77076;SDS011;66003;52.286;104.306;2023-04-25T14:36:28;10.35;;;2.67;;
77076;SDS011;66003;52.286;104.306;2023-04-25T14:38:56;9.25;;;2.42;;
77076;SDS011;66003;52.286;104.306;2023-04-25T14:41:23;7.85;;;3.10;;
77076;SDS011;66003;52.286;104.306;2023-04-25T14:43:50;6.38;;;2.17;;
77076;SDS011;66003;52.286;104.306;2023-04-25T14:46:18;4.93;;;2.00;;
77076;SDS011;66003;52.286;104.306;2023-04-25T14:48:52;2.88;;;2.15;;
77076;SDS011;66003;52.286;104.306;2023-04-25T14:51:19;2.88;;;1.73;;
77076;SDS011;66003;52.286;104.306;2023-04-25T14:53:45;3.70;;;1.00;;
77076;SDS011;66003;52.286;104.306;2023-04-25T14:56:11;3.65;;;1.25;;
77076;SDS011;66003;52.286;104.306;2023-04-25T14:58:38;4.13;;;1.17;;
77076;SDS011;66003;52.286;104.306;2023-04-25T15:01:05;3.42;;;1.23;;
77076;SDS011;66003;52.286;104.306;2023-04-25T15:03:32;3.10;;;1.25;;
77076;SDS011;66003;52.286;104.306;2023-04-25T15:05:58;3.78;;;1.27;;
77076;SDS011;66003;52.286;104.306;2023-04-25T15:08:25;7.43;;;2.65;;
77076;SDS011;66003;52.286;104.306;2023-04-25T15:10:51;8.95;;;2.35;;
77076;SDS011;66003;52.286;104.306;2023-04-25T15:13:18;7.22;;;2.72;;
77076;SDS011;66003;52.286;104.306;2023-04-25T15:15:45;11.63;;;2.75;;
77076;SDS011;66003;52.286;104.306;2023-04-25T15:18:17;8.10;;;3.38;;
77076;SDS011;66003;52.286;104.306;2023-04-25T15:20:44;9.15;;;2.58;;
77076;SDS011;66003;52.286;104.306;2023-04-25T15:23:10;8.52;;;2.10;;
77076;SDS011;66003;52.286;104.306;2023-04-25T15:25:36;7.13;;;2.10;;
77076;SDS011;66003;52.286;104.306;2023-04-25T15:28:02;5.35;;;1.60;;
77076;SDS011;66003;52.286;104.306;2023-04-25T15:30:28;3.65;;;1.50;;
77076;SDS011;66003;52.286;104.306;2023-04-25T15:32:55;3.70;;;1.40;;
77076;SDS011;66003;52.286;104.306;2023-04-25T15:35:21;6.28;;;2.30;;